Consort, Canada
Current Conditions -  °F | °C
As of 10:00 PM on Friday 24 Oct 2014 (Local Time) from CYKY Reporting Station
Scattered Clouds Scattered Clouds  
Wind Chill: 32°   Ceiling: Unl
Heat Index: 36°   Visibility: 15mi
Dew Point: 27°   Wind: 5mph
Humidity: 70%   Direction: 200°SSW
Pressure: 29.99"   Gusts: NA
Location:  52.02°N, 110.8°W
Report Text: CYKY 250400Z 20004KT 15SM SCT260 02/M03 A2999 RMK CI3 SLP180
Loading
Personal Weather Stations






























Interactive Weather Map
Tropical Storm Tracking
New forecast layout! Learn more

10-Day Weather Forecast

Advertisements
Track Severe Weather on mobile